Time;durP1;ratioP1;P1;durP2;ratioP2;P2;SDS_P1;SDS_P2;PMS_P1;PMS_P2;Temp;Humidity;BMP_temperature;BMP_pressure;BME280_temperature;BME280_humidity;BME280_pressure;Samples;Min_cycle;Max_cycle;Signal;HPM_P1;HPM_P2
2021/11/11 00:00:19;;;;;;;41.22;25.13;;;9.50;99.90;;;;;;5060695;28;20426;-78
2021/11/11 00:02:45;;;;;;;48.22;25.65;;;9.30;99.90;;;;;;5059981;28;20036;-78
2021/11/11 00:05:11;;;;;;;46.95;24.73;;;9.30;99.90;;;;;;5064394;28;20032;-77
2021/11/11 00:07:38;;;;;;;37.03;24.02;;;9.30;99.90;;;;;;5094979;28;20139;-78
2021/11/11 00:10:06;;;;;;;34.00;23.90;;;9.30;99.90;;;;;;5060457;28;20153;-78
2021/11/11 00:12:32;;;;;;;40.42;22.95;;;9.30;99.90;;;;;;5103140;28;20033;-78
2021/11/11 00:14:59;;;;;;;43.30;24.02;;;9.30;99.90;;;;;;5061349;28;20064;-78
2021/11/11 00:17:25;;;;;;;36.83;24.73;;;9.30;99.90;;;;;;5058597;28;20040;-78
2021/11/11 00:19:50;;;;;;;39.17;23.83;;;9.30;99.90;;;;;;5062190;28;20051;-77
2021/11/11 00:22:16;;;;;;;41.25;25.38;;;9.30;99.90;;;;;;5057725;28;20033;-78
2021/11/11 00:24:42;;;;;;;42.55;23.23;;;9.30;99.90;;;;;;5060333;28;20132;-78
2021/11/11 00:27:08;;;;;;;47.00;24.63;;;9.30;99.90;;;;;;5059144;28;20422;-78
2021/11/11 00:29:34;;;;;;;42.22;24.33;;;9.30;99.90;;;;;;5057819;28;20101;-78
2021/11/11 00:31:59;;;;;;;41.97;26.38;;;9.30;99.90;;;;;;5060396;28;20131;-78
2021/11/11 00:34:25;;;;;;;38.88;25.20;;;9.30;99.90;;;;;;5060352;28;20048;-78
2021/11/11 00:36:51;;;;;;;40.65;26.25;;;9.30;99.90;;;;;;5060865;28;20040;-78
2021/11/11 00:39:16;;;;;;;43.95;26.52;;;9.30;99.90;;;;;;5059232;28;20040;-78
2021/11/11 00:41:42;;;;;;;42.88;27.17;;;9.30;99.90;;;;;;5059116;28;22464;-78
2021/11/11 00:44:07;;;;;;;47.40;27.63;;;9.30;99.90;;;;;;5060618;28;20040;-78
2021/11/11 00:46:33;;;;;;;38.28;24.73;;;9.30;99.90;;;;;;5058815;28;20049;-78
2021/11/11 00:49:05;;;;;;;46.85;26.42;;;9.30;99.90;;;;;;5057913;28;20394;-78
2021/11/11 00:51:32;;;;;;;40.85;25.13;;;9.30;99.90;;;;;;5058308;28;20486;-78
2021/11/11 00:53:58;;;;;;;45.00;25.85;;;9.30;99.90;;;;;;5060454;28;20052;-78
2021/11/11 00:56:23;;;;;;;42.58;24.30;;;9.30;99.90;;;;;;5062649;28;20962;-78
2021/11/11 00:58:49;;;;;;;40.35;25.30;;;9.30;99.90;;;;;;5059766;28;20048;-78
2021/11/11 01:01:15;;;;;;;42.38;24.23;;;9.30;99.90;;;;;;5094361;28;20036;-78
2021/11/11 01:03:40;;;;;;;37.15;23.95;;;9.30;99.90;;;;;;5059276;28;20372;-78
2021/11/11 01:06:08;;;;;;;43.08;23.33;;;9.30;99.90;;;;;;5060826;28;20036;-77
2021/11/11 01:08:34;;;;;;;35.40;22.90;;;9.30;99.90;;;;;;5089783;28;20048;-78
2021/11/11 01:11:01;;;;;;;36.17;23.40;;;9.30;99.90;;;;;;5058878;28;20066;-77
2021/11/11 01:13:26;;;;;;;39.92;23.60;;;9.30;99.90;;;;;;5061620;28;20109;-78
2021/11/11 01:15:52;;;;;;;37.90;24.38;;;9.30;99.90;;;;;;5057734;28;20551;-78
2021/11/11 01:18:18;;;;;;;35.70;24.50;;;9.30;99.90;;;;;;5072608;28;20051;-78
2021/11/11 01:20:44;;;;;;;37.50;25.33;;;9.30;99.90;;;;;;5061625;28;20135;-78
2021/11/11 01:23:10;;;;;;;40.80;24.02;;;9.30;99.90;;;;;;5059479;28;20040;-78
2021/11/11 01:25:38;;;;;;;41.63;25.00;;;9.30;99.90;;;;;;5057688;28;20120;-78
2021/11/11 01:28:05;;;;;;;36.35;23.65;;;9.30;99.90;;;;;;5057586;28;20090;-78
2021/11/11 01:30:31;;;;;;;44.58;24.88;;;9.30;99.90;;;;;;5060651;28;20068;-78
2021/11/11 01:32:58;;;;;;;39.45;23.63;;;9.30;99.90;;;;;;5061840;28;20079;-78
2021/11/11 01:35:23;;;;;;;39.60;24.17;;;9.30;99.90;;;;;;5061216;28;20499;-78
2021/11/11 01:37:49;;;;;;;34.90;22.90;;;9.30;99.90;;;;;;5059487;28;20059;-78
2021/11/11 01:40:16;;;;;;;40.15;24.52;;;9.30;99.90;;;;;;5062922;28;20124;-78
2021/11/11 01:42:53;;;;;;;36.63;22.20;;;9.30;99.90;;;;;;5044363;28;20036;-78
2021/11/11 01:45:28;;;;;;;38.13;21.80;;;9.30;99.90;;;;;;5060536;28;20036;-78
2021/11/11 01:47:55;;;;;;;37.93;25.53;;;9.30;99.90;;;;;;5057690;28;20052;-78
2021/11/11 01:50:22;;;;;;;48.50;25.02;;;9.30;99.90;;;;;;5057517;28;20291;-78
2021/11/11 01:52:48;;;;;;;33.83;23.48;;;9.30;99.90;;;;;;5063499;28;21251;-78
2021/11/11 01:55:14;;;;;;;38.20;22.83;;;9.30;99.90;;;;;;5064107;28;20109;-78
2021/11/11 01:57:41;;;;;;;38.20;23.98;;;9.30;99.90;;;;;;5061200;28;20061;-78
2021/11/11 02:00:21;;;;;;;36.75;22.67;;;9.30;99.90;;;;;;5061363;28;20044;-78
2021/11/11 02:02:57;;;;;;;39.65;24.40;;;9.30;99.90;;;;;;5060694;28;20162;-78
2021/11/11 02:05:24;;;;;;;42.20;24.77;;;9.30;99.90;;;;;;5058452;28;20044;-78
2021/11/11 02:07:50;;;;;;;48.95;24.92;;;9.20;99.90;;;;;;5058780;28;20044;-78
2021/11/11 02:10:17;;;;;;;42.65;23.67;;;9.30;99.90;;;;;;5064158;28;20032;-78
2021/11/11 02:12:44;;;;;;;44.75;25.23;;;9.30;99.90;;;;;;5063987;28;20952;-78
2021/11/11 02:15:10;;;;;;;38.47;23.98;;;9.30;99.90;;;;;;5061699;28;20048;-78
2021/11/11 02:17:36;;;;;;;43.22;25.67;;;9.30;99.90;;;;;;5058788;28;20076;-78
2021/11/11 02:20:15;;;;;;;45.53;25.83;;;9.30;99.90;;;;;;5061479;28;20102;-78
2021/11/11 02:22:42;;;;;;;47.45;27.88;;;9.30;99.90;;;;;;5063185;28;20470;-78
2021/11/11 02:25:09;;;;;;;48.05;27.63;;;9.30;99.90;;;;;;5098713;28;20072;-78
2021/11/11 02:27:35;;;;;;;44.72;27.85;;;9.30;99.90;;;;;;5066425;28;20133;-78
2021/11/11 02:30:04;;;;;;;52.92;28.67;;;9.30;99.90;;;;;;5066371;28;20127;-78
2021/11/11 02:32:31;;;;;;;47.10;28.58;;;9.30;99.90;;;;;;5069035;28;20063;-78
2021/11/11 02:34:57;;;;;;;49.78;29.98;;;9.30;99.90;;;;;;5066967;28;20951;-78
2021/11/11 02:37:27;;;;;;;52.15;29.95;;;9.30;99.90;;;;;;5061293;28;20033;-78
2021/11/11 02:39:52;;;;;;;52.58;30.65;;;9.30;99.90;;;;;;5066532;28;20409;-77
2021/11/11 02:42:18;;;;;;;53.63;29.02;;;9.30;99.90;;;;;;5074414;28;20047;-78
2021/11/11 02:44:44;;;;;;;54.55;30.55;;;9.30;99.90;;;;;;5065231;28;20072;-78
2021/11/11 02:47:10;;;;;;;45.92;29.02;;;9.40;99.90;;;;;;5064593;28;20115;-78
2021/11/11 02:49:36;;;;;;;52.17;29.33;;;9.30;99.90;;;;;;5065954;28;20039;-78
2021/11/11 02:52:02;;;;;;;51.30;29.15;;;9.40;99.90;;;;;;5063533;28;20040;-78
2021/11/11 02:54:28;;;;;;;56.80;31.42;;;9.40;99.90;;;;;;5097931;28;20048;-78
2021/11/11 02:56:54;;;;;;;50.58;30.83;;;9.40;99.90;;;;;;5066129;28;20063;-78
2021/11/11 02:59:20;;;;;;;57.55;31.83;;;9.40;99.90;;;;;;5065264;28;20040;-78
2021/11/11 03:01:45;;;;;;;51.38;30.88;;;9.30;99.90;;;;;;5064933;28;20414;-78
2021/11/11 03:04:11;;;;;;;53.92;31.30;;;9.30;99.90;;;;;;5065306;28;20107;-78
2021/11/11 03:06:40;;;;;;;55.05;33.80;;;9.40;99.90;;;;;;5063534;28;20037;-78
2021/11/11 03:09:06;;;;;;;48.60;32.65;;;9.40;99.90;;;;;;5061725;28;20493;-78
2021/11/11 03:11:32;;;;;;;58.33;34.95;;;9.30;99.90;;;;;;5064498;28;20040;-78
2021/11/11 03:13:57;;;;;;;54.88;34.35;;;9.40;99.90;;;;;;5066632;28;21008;-78
2021/11/11 03:16:23;;;;;;;56.55;35.55;;;9.40;99.90;;;;;;5066502;28;20131;-78
2021/11/11 03:18:49;;;;;;;55.53;35.97;;;9.30;99.90;;;;;;5062002;28;20140;-77
2021/11/11 03:21:15;;;;;;;62.88;37.92;;;9.40;99.90;;;;;;5064895;28;20033;-78
2021/11/11 03:23:40;;;;;;;54.70;38.22;;;9.40;99.90;;;;;;5065072;28;20094;-78
2021/11/11 03:26:06;;;;;;;59.25;37.40;;;9.40;99.90;;;;;;5066195;28;20048;-78
2021/11/11 03:28:32;;;;;;;61.45;38.53;;;9.40;99.90;;;;;;5064957;28;20059;-78
2021/11/11 03:30:57;;;;;;;64.95;39.30;;;9.40;99.90;;;;;;5066956;28;21231;-78
2021/11/11 03:33:23;;;;;;;61.67;40.78;;;9.40;99.90;;;;;;5066388;28;20520;-78
2021/11/11 03:35:49;;;;;;;61.88;39.75;;;9.40;99.90;;;;;;5065907;28;20102;-78
2021/11/11 03:38:15;;;;;;;64.40;40.20;;;9.40;99.90;;;;;;5064709;28;20450;-78
2021/11/11 03:40:44;;;;;;;64.45;41.28;;;9.40;99.90;;;;;;5063080;28;20095;-77
2021/11/11 03:43:10;;;;;;;61.30;42.20;;;9.40;99.90;;;;;;5097584;28;20432;-78
2021/11/11 03:45:37;;;;;;;71.68;42.40;;;9.30;99.90;;;;;;5096206;28;20055;-78
2021/11/11 03:48:04;;;;;;;57.92;40.38;;;9.40;99.90;;;;;;5064778;28;20048;-78
2021/11/11 03:50:30;;;;;;;62.60;39.78;;;9.30;99.90;;;;;;5064912;28;20135;-78
2021/11/11 03:52:56;;;;;;;58.65;37.70;;;9.30;99.90;;;;;;5064328;28;20055;-78
2021/11/11 03:55:25;;;;;;;64.50;39.65;;;9.40;99.90;;;;;;5065313;28;20037;-78
2021/11/11 03:57:53;;;;;;;65.40;40.50;;;9.40;99.90;;;;;;5062577;28;20048;-79
2021/11/11 04:00:20;;;;;;;62.55;41.88;;;9.40;99.90;;;;;;5066703;28;20044;-78
2021/11/11 04:02:46;;;;;;;66.93;40.00;;;9.40;99.90;;;;;;5065820;28;20033;-78
2021/11/11 04:05:12;;;;;;;65.72;41.42;;;9.40;99.90;;;;;;5064091;28;20036;-78
2021/11/11 04:07:37;;;;;;;69.00;43.03;;;9.40;99.90;;;;;;5061735;28;20060;-78
2021/11/11 04:10:05;;;;;;;72.93;44.63;;;9.30;99.90;;;;;;5096275;28;20122;-79
2021/11/11 04:12:30;;;;;;;73.18;46.40;;;9.30;99.90;;;;;;5044860;28;20067;-78
2021/11/11 04:14:56;;;;;;;75.53;45.60;;;9.30;99.90;;;;;;5065244;28;20390;-78
2021/11/11 04:17:22;;;;;;;65.80;46.00;;;9.30;99.90;;;;;;5092246;28;20187;-78
2021/11/11 04:19:47;;;;;;;77.57;48.63;;;9.30;99.90;;;;;;5061969;28;20044;-78
2021/11/11 04:22:13;;;;;;;78.32;49.08;;;9.30;99.90;;;;;;5063320;28;20040;-77
2021/11/11 04:24:39;;;;;;;83.85;52.75;;;9.30;99.90;;;;;;5063987;28;20036;-78
2021/11/11 04:27:21;;;;;;;83.80;53.35;;;9.30;99.90;;;;;;5062431;28;20040;-78
2021/11/11 04:30:01;;;;;;;89.88;57.60;;;9.30;99.90;;;;;;5064562;28;20056;-78
2021/11/11 04:32:27;;;;;;;90.75;56.83;;;9.30;99.90;;;;;;5064308;28;20036;-77
2021/11/11 04:34:57;;;;;;;84.90;58.20;;;9.30;99.90;;;;;;5062522;28;20440;-78
2021/11/11 04:37:29;;;;;;;102.15;64.00;;;9.30;99.90;;;;;;5059578;28;20099;-78
2021/11/11 04:40:30;;;;;;;101.50;65.47;;;9.20;99.90;;;;;;5060362;28;20054;-78
2021/11/11 04:48:40;;;;;;;95.35;63.08;;;9.30;99.90;;;;;;5056240;28;20128;-78
2021/11/11 05:04:13;;;;;;;100.40;65.32;;;9.20;99.90;;;;;;5061020;28;20040;-78
2021/11/11 05:06:39;;;;;;;102.88;65.97;;;9.20;99.90;;;;;;5059013;28;20068;-78
2021/11/11 05:09:04;;;;;;;105.55;66.20;;;9.20;99.90;;;;;;5070715;28;20407;-76
2021/11/11 05:11:30;;;;;;;96.75;65.53;;;9.20;99.90;;;;;;5060216;28;20233;-78
2021/11/11 05:13:57;;;;;;;86.63;60.25;;;9.30;99.90;;;;;;5061606;28;20040;-77
2021/11/11 05:16:23;;;;;;;91.63;62.25;;;9.20;99.90;;;;;;5062799;28;20044;-77
2021/11/11 05:18:49;;;;;;;98.40;61.72;;;9.20;99.90;;;;;;5055807;28;20090;-78
2021/11/11 05:21:14;;;;;;;95.97;60.83;;;9.20;99.90;;;;;;5061018;28;20056;-77
2021/11/11 05:23:41;;;;;;;93.13;61.47;;;9.20;99.90;;;;;;5060031;28;20479;-78
2021/11/11 05:26:09;;;;;;;85.57;57.20;;;9.20;99.90;;;;;;5059147;28;20536;-78
2021/11/11 05:28:36;;;;;;;92.82;61.05;;;9.20;99.90;;;;;;5055495;28;20080;-77
2021/11/11 05:31:02;;;;;;;98.65;62.95;;;9.30;99.90;;;;;;5059775;28;20147;-77
2021/11/11 05:33:27;;;;;;;102.20;62.08;;;9.20;99.90;;;;;;5092720;27;20463;-78
2021/11/11 05:35:53;;;;;;;86.25;57.70;;;9.20;99.90;;;;;;5060300;28;20082;-77
2021/11/11 05:38:22;;;;;;;85.63;54.53;;;9.20;99.90;;;;;;5058662;28;20037;-77
2021/11/11 05:40:47;;;;;;;80.78;54.10;;;9.30;99.90;;;;;;5059693;28;20045;-77
2021/11/11 05:43:13;;;;;;;85.75;56.60;;;9.20;99.90;;;;;;5062783;28;20036;-77
2021/11/11 05:45:38;;;;;;;86.07;52.90;;;9.30;99.90;;;;;;5056022;28;20429;-78
2021/11/11 05:48:04;;;;;;;77.72;50.35;;;9.30;99.90;;;;;;5063491;28;20547;-78
2021/11/11 05:50:30;;;;;;;73.45;50.63;;;9.20;99.90;;;;;;5060706;28;20513;-78
2021/11/11 05:52:56;;;;;;;68.32;48.08;;;9.30;99.90;;;;;;5062084;28;20056;-77
2021/11/11 05:55:22;;;;;;;79.05;51.08;;;9.30;99.90;;;;;;5061219;28;20074;-77
2021/11/11 05:57:48;;;;;;;80.50;52.88;;;9.30;99.90;;;;;;5093610;28;20036;-77
2021/11/11 06:00:17;;;;;;;74.75;49.75;;;9.30;99.90;;;;;;5065027;28;20493;-77
2021/11/11 06:02:43;;;;;;;75.43;51.22;;;9.20;99.90;;;;;;5078727;28;20049;-78
2021/11/11 06:05:09;;;;;;;86.10;53.38;;;9.20;99.90;;;;;;5063850;28;20059;-77
2021/11/11 06:07:35;;;;;;;84.60;54.95;;;9.30;99.90;;;;;;5058867;28;20049;-77
2021/11/11 06:10:02;;;;;;;88.43;56.30;;;9.20;99.90;;;;;;5060454;28;20043;-78
2021/11/11 06:12:28;;;;;;;89.55;57.25;;;9.20;99.90;;;;;;5062547;28;20055;-77
2021/11/11 06:14:53;;;;;;;84.30;55.45;;;9.20;99.90;;;;;;5062351;28;20398;-77
2021/11/11 06:17:19;;;;;;;92.68;55.45;;;9.30;99.90;;;;;;5062252;28;20131;-77
2021/11/11 06:19:46;;;;;;;90.35;57.13;;;9.30;99.90;;;;;;5093405;28;20039;-78
2021/11/11 06:22:12;;;;;;;83.45;51.65;;;9.30;99.90;;;;;;5093933;28;20503;-78
2021/11/11 06:24:37;;;;;;;96.10;56.92;;;9.30;99.90;;;;;;5061284;28;20071;-77
2021/11/11 06:27:04;;;;;;;90.38;56.17;;;9.20;99.90;;;;;;5062232;28;20151;-78
2021/11/11 06:29:29;;;;;;;99.40;58.25;;;9.20;99.90;;;;;;5060588;28;20069;-77
2021/11/11 06:31:55;;;;;;;88.13;55.88;;;9.20;99.90;;;;;;5064343;28;20036;-78
2021/11/11 06:34:20;;;;;;;96.50;57.20;;;9.20;99.90;;;;;;5060573;28;20115;-78
2021/11/11 06:36:46;;;;;;;84.38;54.88;;;9.30;99.90;;;;;;5061698;28;20083;-77
2021/11/11 06:39:12;;;;;;;85.85;56.35;;;9.30;99.90;;;;;;5062029;28;20037;-77
2021/11/11 06:41:37;;;;;;;91.70;56.28;;;9.20;99.90;;;;;;5061039;28;20047;-77
2021/11/11 06:44:04;;;;;;;94.60;58.03;;;9.30;99.90;;;;;;5061807;28;20056;-77
2021/11/11 06:46:30;;;;;;;94.93;59.75;;;9.30;99.90;;;;;;5064058;28;20144;-77
2021/11/11 06:48:56;;;;;;;89.72;56.58;;;9.30;99.90;;;;;;5045638;28;20040;-77
2021/11/11 06:51:21;;;;;;;84.93;53.97;;;9.30;99.90;;;;;;5063294;28;20599;-77
2021/11/11 06:53:47;;;;;;;83.75;56.47;;;9.20;99.90;;;;;;5092993;28;20044;-77
2021/11/11 06:56:13;;;;;;;86.75;55.97;;;9.20;99.90;;;;;;5062485;28;20076;-80
2021/11/11 06:58:39;;;;;;;87.13;54.50;;;9.30;99.90;;;;;;5059302;28;20055;-80
2021/11/11 07:01:05;;;;;;;74.22;52.58;;;9.30;99.90;;;;;;5060322;28;20041;-80
2021/11/11 07:03:32;;;;;;;82.38;54.17;;;9.30;99.90;;;;;;5064126;28;20055;-80
2021/11/11 07:05:58;;;;;;;94.65;58.13;;;9.30;99.90;;;;;;5058149;28;20033;-80
2021/11/11 07:08:25;;;;;;;89.82;55.38;;;9.30;99.90;;;;;;5057357;28;20044;-81
2021/11/11 07:10:52;;;;;;;87.68;55.03;;;9.30;99.90;;;;;;5059978;28;20556;-80
2021/11/11 07:13:19;;;;;;;85.90;53.05;;;9.30;99.90;;;;;;5058070;28;20897;-80
2021/11/11 07:15:46;;;;;;;87.93;54.40;;;9.20;99.90;;;;;;5058911;28;20052;-80
2021/11/11 07:18:13;;;;;;;90.80;55.90;;;9.30;99.90;;;;;;5089138;28;20037;-80
2021/11/11 07:20:44;;;;;;;89.53;56.30;;;9.30;99.90;;;;;;5061982;28;20631;-80
2021/11/11 07:23:14;;;;;;;94.07;58.75;;;9.30;99.90;;;;;;5062458;28;20039;-80
2021/11/11 07:25:40;;;;;;;83.50;55.47;;;9.30;99.90;;;;;;5066314;28;20072;-80
2021/11/11 07:28:06;;;;;;;84.53;56.45;;;9.30;99.90;;;;;;5061451;28;20065;-80
2021/11/11 07:30:33;;;;;;;85.00;55.30;;;9.40;99.90;;;;;;5058621;28;20078;-80
2021/11/11 07:32:58;;;;;;;90.72;56.28;;;9.40;99.90;;;;;;5060795;28;20127;-80
2021/11/11 07:35:24;;;;;;;80.10;55.40;;;9.40;99.90;;;;;;5067462;28;20490;-80
2021/11/11 07:37:51;;;;;;;94.93;59.75;;;9.40;99.90;;;;;;5057238;28;20040;-80
2021/11/11 07:40:20;;;;;;;90.30;59.92;;;9.40;99.90;;;;;;5061189;28;20048;-80
2021/11/11 07:42:47;;;;;;;80.75;54.58;;;9.30;99.90;;;;;;5060541;28;20040;-80
2021/11/11 07:45:16;;;;;;;101.72;65.20;;;9.40;99.90;;;;;;5060603;28;20036;-80
2021/11/11 07:47:42;;;;;;;92.85;58.10;;;9.40;99.90;;;;;;5057731;28;20690;-80
2021/11/11 07:50:10;;;;;;;89.28;58.67;;;9.40;99.90;;;;;;5059892;28;20539;-80
2021/11/11 07:52:36;;;;;;;88.07;59.08;;;9.40;99.90;;;;;;5057935;28;20048;-80
2021/11/11 07:55:03;;;;;;;79.43;56.00;;;9.40;99.90;;;;;;5059033;28;20041;-80
2021/11/11 07:57:31;;;;;;;82.22;55.53;;;9.40;99.90;;;;;;5058725;28;20043;-80
2021/11/11 07:59:58;;;;;;;89.03;55.13;;;9.40;99.90;;;;;;5061428;28;20074;-80
2021/11/11 08:02:24;;;;;;;81.28;53.95;;;9.40;99.90;;;;;;5073998;28;20801;-80
2021/11/11 08:04:52;;;;;;;84.97;51.95;;;9.40;99.90;;;;;;5058765;28;20047;-80
2021/11/11 08:07:18;;;;;;;80.65;53.55;;;9.40;99.90;;;;;;5057890;28;20056;-80
2021/11/11 08:09:49;;;;;;;78.95;50.72;;;9.50;99.90;;;;;;5059275;28;20048;-80
2021/11/11 08:12:15;;;;;;;81.22;51.28;;;9.50;99.90;;;;;;5058467;28;20059;-80
2021/11/11 08:14:41;;;;;;;80.45;50.28;;;9.50;99.90;;;;;;5058442;28;20043;-80
2021/11/11 08:17:08;;;;;;;89.43;53.28;;;9.40;99.90;;;;;;5059814;28;20044;-80
2021/11/11 08:19:35;;;;;;;79.35;50.83;;;9.40;99.90;;;;;;5061984;28;20044;-80
2021/11/11 08:22:00;;;;;;;80.63;50.42;;;9.50;99.90;;;;;;5060024;28;20037;-80
2021/11/11 08:24:26;;;;;;;82.18;50.33;;;9.50;99.90;;;;;;5058030;28;20052;-81
2021/11/11 08:26:52;;;;;;;80.90;50.70;;;9.50;99.90;;;;;;5056300;28;20526;-80
2021/11/11 08:29:18;;;;;;;78.53;51.58;;;9.50;99.90;;;;;;5092030;27;20387;-80
2021/11/11 08:31:44;;;;;;;85.72;52.42;;;9.60;99.90;;;;;;5060232;28;20033;-81
2021/11/11 08:34:10;;;;;;;82.22;52.35;;;9.50;99.90;;;;;;5058497;28;20080;-81
2021/11/11 08:36:36;;;;;;;86.18;52.50;;;9.60;99.90;;;;;;5056617;28;20059;-80
2021/11/11 08:39:02;;;;;;;82.85;52.70;;;9.50;99.90;;;;;;5058219;28;20486;-81
2021/11/11 08:41:29;;;;;;;72.50;51.28;;;9.60;99.90;;;;;;5041975;28;20048;-80
2021/11/11 08:43:57;;;;;;;82.45;51.83;;;9.50;99.90;;;;;;5060533;28;20063;-80
2021/11/11 08:46:23;;;;;;;84.75;51.63;;;9.60;99.90;;;;;;5057682;28;20028;-80
2021/11/11 08:48:49;;;;;;;91.13;53.90;;;9.60;99.90;;;;;;5057375;28;20129;-80
2021/11/11 08:51:15;;;;;;;85.03;53.30;;;9.60;99.90;;;;;;5059090;28;20052;-80
2021/11/11 08:53:41;;;;;;;79.75;52.55;;;9.60;99.90;;;;;;5054905;28;20399;-80
2021/11/11 08:56:07;;;;;;;85.03;52.08;;;9.70;99.90;;;;;;5058108;28;20544;-80
2021/11/11 08:58:36;;;;;;;77.85;50.97;;;9.70;99.90;;;;;;5065737;28;20067;-80
2021/11/11 09:01:04;;;;;;;77.82;50.83;;;9.70;99.90;;;;;;5064694;28;20478;-80
2021/11/11 09:03:30;;;;;;;78.82;49.55;;;9.70;99.90;;;;;;5055362;28;20114;-80
2021/11/11 09:05:56;;;;;;;81.35;50.72;;;9.80;99.90;;;;;;5059078;28;20420;-80
2021/11/11 09:08:22;;;;;;;80.03;50.70;;;9.80;99.90;;;;;;5058653;28;20123;-80
2021/11/11 09:10:48;;;;;;;81.90;51.53;;;9.80;99.90;;;;;;5060479;28;20919;-80
2021/11/11 09:13:13;;;;;;;67.60;46.20;;;9.90;99.90;;;;;;5058224;28;20040;-80
2021/11/11 09:15:39;;;;;;;73.75;49.80;;;9.90;99.90;;;;;;5055936;28;20076;-80
2021/11/11 09:18:07;;;;;;;83.65;52.15;;;10.00;99.90;;;;;;5058714;28;20050;-81
2021/11/11 09:20:35;;;;;;;73.28;49.15;;;10.00;99.90;;;;;;5040381;28;20037;-80
2021/11/11 09:23:01;;;;;;;69.80;46.33;;;10.00;99.90;;;;;;5059152;28;20516;-80
2021/11/11 09:25:30;;;;;;;73.78;46.13;;;10.00;99.90;;;;;;5058514;28;20036;-80
2021/11/11 09:27:57;;;;;;;70.82;47.20;;;10.00;99.90;;;;;;5058914;28;20052;-80
2021/11/11 09:30:28;;;;;;;69.53;45.15;;;10.00;99.90;;;;;;5058289;28;20087;-80
2021/11/11 09:32:54;;;;;;;68.85;45.47;;;10.10;99.90;;;;;;5041725;28;20045;-80
2021/11/11 09:35:21;;;;;;;65.10;43.22;;;10.00;99.90;;;;;;5059198;28;20490;-80
2021/11/11 09:37:48;;;;;;;69.80;45.03;;;10.00;99.90;;;;;;5069831;28;20048;-80
2021/11/11 09:40:18;;;;;;;83.68;49.92;;;10.00;99.90;;;;;;5057773;28;20040;-80
2021/11/11 09:42:45;;;;;;;75.00;48.17;;;10.10;99.90;;;;;;5057244;28;20037;-80
2021/11/11 09:45:15;;;;;;;76.28;47.67;;;10.00;99.90;;;;;;5060649;28;20048;-81
2021/11/11 09:47:48;;;;;;;77.90;47.08;;;10.10;99.90;;;;;;5059246;28;20502;-80
2021/11/11 09:50:15;;;;;;;74.22;47.55;;;10.10;99.90;;;;;;5061200;28;20135;-80
2021/11/11 09:52:41;;;;;;;73.50;46.35;;;10.20;99.90;;;;;;5061949;28;20045;-80
2021/11/11 10:00:41;;;;;;;74.75;47.65;;;10.30;99.90;;;;;;5066629;28;20057;-80
2021/11/11 10:03:07;;;;;;;70.32;46.13;;;10.30;99.90;;;;;;5059642;28;20153;-80
2021/11/11 10:05:33;;;;;;;61.25;42.15;;;10.30;99.90;;;;;;5056708;28;20537;-80
2021/11/11 10:08:03;;;;;;;73.80;47.63;;;10.40;99.90;;;;;;5057634;28;20033;-80
2021/11/11 10:10:37;;;;;;;69.28;46.28;;;10.40;99.90;;;;;;5057614;28;20049;-79
2021/11/11 10:13:14;;;;;;;64.38;44.83;;;10.40;99.90;;;;;;5055641;28;20063;-80
2021/11/11 10:16:09;;;;;;;70.95;47.38;;;10.40;99.90;;;;;;5089668;28;20078;-80
2021/11/11 10:18:41;;;;;;;67.68;45.08;;;10.50;99.90;;;;;;5057153;28;20101;-80
2021/11/11 10:21:51;;;;;;;65.13;44.28;;;10.50;99.90;;;;;;5056973;28;20052;-80
2021/11/11 10:24:42;;;;;;;67.88;44.75;;;10.50;99.90;;;;;;5055793;28;20049;-80
2021/11/11 10:27:29;;;;;;;62.78;43.78;;;10.50;99.90;;;;;;5056139;28;20048;-80
2021/11/11 10:30:15;;;;;;;66.57;45.92;;;10.60;99.90;;;;;;5058083;28;20450;-80
2021/11/11 10:32:44;;;;;;;63.25;44.13;;;10.60;99.90;;;;;;5059647;28;20048;-80
2021/11/11 10:35:23;;;;;;;72.25;44.42;;;10.70;99.90;;;;;;5059031;28;20044;-80
2021/11/11 10:38:00;;;;;;;68.25;44.78;;;10.70;99.90;;;;;;5052570;28;20048;-80
2021/11/11 10:40:32;;;;;;;59.20;41.95;;;10.80;99.90;;;;;;5055803;28;20041;-80
2021/11/11 10:43:03;;;;;;;63.25;44.40;;;10.80;99.90;;;;;;5060370;28;20045;-80
2021/11/11 10:45:32;;;;;;;71.13;43.28;;;10.80;99.90;;;;;;5060156;28;20553;-80
2021/11/11 10:48:02;;;;;;;64.68;45.60;;;10.80;99.90;;;;;;5058221;28;20033;-80
2021/11/11 10:50:33;;;;;;;57.72;42.10;;;10.80;99.90;;;;;;5060748;28;20064;-80
2021/11/11 10:53:05;;;;;;;64.75;44.60;;;10.80;99.90;;;;;;5059890;28;20044;-80
2021/11/11 10:55:51;;;;;;;69.40;45.78;;;10.80;99.90;;;;;;5058677;28;20052;-80
2021/11/11 10:58:25;;;;;;;65.55;47.22;;;10.80;99.90;;;;;;5058156;28;20044;-81
2021/11/11 11:01:03;;;;;;;70.28;46.30;;;10.80;99.90;;;;;;5092481;28;20561;-80
2021/11/11 11:03:43;;;;;;;67.70;47.70;;;10.80;99.90;;;;;;5091241;28;20142;-80
2021/11/11 11:06:13;;;;;;;73.57;49.35;;;10.80;99.90;;;;;;5060464;28;20033;-80
2021/11/11 11:08:48;;;;;;;72.45;50.78;;;10.90;99.90;;;;;;5059035;28;20044;-80
2021/11/11 11:11:21;;;;;;;83.05;53.08;;;10.90;99.90;;;;;;5060486;28;20094;-80
2021/11/11 11:13:50;;;;;;;71.43;48.85;;;10.90;99.90;;;;;;5059599;28;20735;-80
2021/11/11 11:16:20;;;;;;;86.25;50.78;;;10.90;99.90;;;;;;5090695;28;20044;-80
2021/11/11 11:18:57;;;;;;;85.10;54.20;;;10.90;99.90;;;;;;5056800;28;20124;-80
2021/11/11 11:21:26;;;;;;;84.53;54.75;;;10.90;99.90;;;;;;5058486;28;20116;-80
2021/11/11 11:23:56;;;;;;;84.05;53.97;;;10.90;99.90;;;;;;5061709;28;20128;-80
2021/11/11 11:26:26;;;;;;;90.80;56.40;;;10.90;99.90;;;;;;5062262;28;21798;-80
2021/11/11 11:29:02;;;;;;;83.88;54.63;;;10.90;99.90;;;;;;5058326;28;20044;-80
2021/11/11 11:31:51;;;;;;;96.18;57.95;;;11.00;99.90;;;;;;5059548;28;20495;-80
2021/11/11 11:34:27;;;;;;;96.55;58.60;;;11.00;99.90;;;;;;5056953;28;20047;-79
2021/11/11 11:37:11;;;;;;;94.88;58.22;;;11.10;99.90;;;;;;5062140;28;20483;-80
2021/11/11 11:39:43;;;;;;;92.30;59.53;;;11.00;99.90;;;;;;5065506;28;20110;-79
2021/11/11 11:42:15;;;;;;;83.93;55.45;;;11.00;99.90;;;;;;5058790;28;20364;-80
2021/11/11 11:44:50;;;;;;;98.22;59.00;;;11.10;99.90;;;;;;5058699;28;20029;-79
2021/11/11 11:47:33;;;;;;;97.53;58.75;;;11.00;99.90;;;;;;5094033;27;20036;-79
2021/11/11 11:50:14;;;;;;;92.85;59.60;;;11.00;99.90;;;;;;5059837;28;20663;-80
2021/11/11 11:52:44;;;;;;;100.28;60.65;;;11.00;99.90;;;;;;5060292;28;20052;-80
2021/11/11 11:56:08;;;;;;;86.25;58.08;;;11.00;99.90;;;;;;5061361;28;20036;-80
2021/11/11 11:58:12;;;;;;;92.28;61.10;;;11.00;99.90;;;;;;5053082;28;20056;-79
2021/11/11 12:08:45;;;;;;;105.30;60.22;;;11.10;99.90;;;;;;5060483;28;20052;-80
2021/11/11 12:29:13;;;;;;;88.70;59.33;;;11.10;99.90;;;;;;5032623;28;20049;-80
2021/11/11 12:40:05;;;;;;;91.07;62.20;;;11.20;99.90;;;;;;5057256;28;20053;-77
2021/11/11 12:42:54;;;;;;;88.68;57.92;;;11.20;99.90;;;;;;5054972;28;21000;-77
2021/11/11 12:45:23;;;;;;;87.05;57.60;;;11.10;99.90;;;;;;5054629;28;20049;-77
2021/11/11 12:47:56;;;;;;;91.90;58.53;;;11.20;99.90;;;;;;5058183;28;20090;-77
2021/11/11 12:50:33;;;;;;;80.70;55.45;;;11.20;99.90;;;;;;5058789;28;20048;-77
2021/11/11 12:53:12;;;;;;;81.63;56.70;;;11.20;99.90;;;;;;5058903;28;20117;-77
2021/11/11 12:55:55;;;;;;;86.95;56.65;;;11.20;99.90;;;;;;5060775;28;20063;-77
2021/11/11 12:58:30;;;;;;;80.35;55.40;;;11.20;99.90;;;;;;5054706;28;20075;-77
2021/11/11 13:01:00;;;;;;;81.95;57.72;;;11.20;99.90;;;;;;5056227;28;20636;-77
2021/11/11 13:03:47;;;;;;;79.30;54.95;;;11.20;99.90;;;;;;5063090;28;20040;-77
2021/11/11 13:06:31;;;;;;;80.82;55.92;;;11.20;99.90;;;;;;5090696;28;21950;-78
2021/11/11 13:08:58;;;;;;;71.97;52.10;;;11.20;99.90;;;;;;5058725;28;20040;-78
2021/11/11 13:11:31;;;;;;;81.55;56.15;;;11.10;99.90;;;;;;5057954;28;20051;-78
2021/11/11 13:14:15;;;;;;;84.63;54.22;;;11.10;99.90;;;;;;5057113;28;20505;-78
2021/11/11 13:16:54;;;;;;;80.25;55.28;;;11.20;99.90;;;;;;5055606;28;20052;-78
2021/11/11 13:19:52;;;;;;;85.03;55.75;;;11.10;99.90;;;;;;5058674;28;20094;-78
2021/11/11 13:22:39;;;;;;;82.85;55.05;;;11.10;99.90;;;;;;5059723;28;20043;-78
2021/11/11 13:25:39;;;;;;;69.88;49.10;;;11.10;99.90;;;;;;5058456;28;20037;-77
2021/11/11 15:57:02;;;;;;;98.75;55.15;;;10.80;99.90;;;;;;5056666;28;20044;-75
2021/11/11 16:01:30;;;;;;;88.60;53.72;;;10.80;99.90;;;;;;5059551;28;20048;-75
2021/11/11 16:20:13;;;;;;;119.50;59.70;;;10.70;99.90;;;;;;5058850;28;20048;-75
2021/11/11 16:25:36;;;;;;;109.68;57.08;;;10.70;99.90;;;;;;5059036;28;20085;-75
2021/11/11 16:28:00;;;;;;;121.88;63.10;;;10.70;99.90;;;;;;5058992;28;21821;-75
2021/11/11 16:30:26;;;;;;;108.05;57.83;;;10.70;99.90;;;;;;5059100;28;20044;-75